Time;durP1;ratioP1;P1;durP2;ratioP2;P2;SDS_P1;SDS_P2;PMS_P1;PMS_P2;Temp;Humidity;BMP_temperature;BMP_pressure;BME280_temperature;BME280_humidity;BME280_pressure;Samples;Min_cycle;Max_cycle;Signal;HPM_P1;HPM_P2
2023/10/01 00:08:57;;;;;;;20.70;6.20;;;;;;;12.91;76.23;99887.78;106937;1279;93520;-93
2023/10/01 00:15:34;;;;;;;15.90;5.30;;;;;;;12.89;76.17;99880.09;107264;1276;108442;-91
2023/10/01 00:18:46;;;;;;;19.20;6.20;;;;;;;12.85;76.19;99878.77;107144;1277;94366;-91
2023/10/01 00:39:22;;;;;;;20.20;5.90;;;;;;;12.79;76.18;99874.85;102695;1276;107884;-92
2023/10/01 00:46:24;;;;;;;17.80;6.40;;;;;;;12.80;76.18;99884.04;107287;1270;94729;31
2023/10/01 00:49:29;;;;;;;18.00;5.80;;;;;;;12.81;76.22;99874.92;107068;1279;110928;-91
2023/10/01 00:58:52;;;;;;;20.10;6.70;;;;;;;12.81;76.08;99869.56;103579;1276;94256;-92
2023/10/01 01:11:27;;;;;;;21.90;7.00;;;;;;;12.79;76.08;99882.91;100919;1278;106324;-91
2023/10/01 01:14:48;;;;;;;19.70;7.50;;;;;;;12.78;76.04;99882.60;106913;1279;94844;-91
2023/10/01 01:27:34;;;;;;;;;;;;;;;12.72;76.13;99882.46;107314;1276;107935;-92
2023/10/01 01:34:24;;;;;;;22.80;7.20;;;;;;;12.72;76.09;99883.75;98997;1273;96690;-92
2023/10/01 01:40:58;;;;;;;20.60;7.00;;;;;;;12.75;76.11;99879.95;107256;1277;95745;-92
2023/10/01 01:44:44;;;;;;;;;;;;;;;;;;;;;
2023/10/01 02:10:46;;;;;;;16.20;6.10;;;;;;;12.73;76.03;99871.73;107392;1276;109960;-92
2023/10/01 02:13:41;;;;;;;20.20;5.80;;;;;;;12.71;75.98;99867.09;107310;1277;94549;-91
2023/10/01 02:20:01;;;;;;;21.60;6.90;;;;;;;12.68;75.98;99867.65;107317;1273;96136;-93
2023/10/01 02:26:06;;;;;;;19.20;6.00;;;;;;;12.63;75.82;99862.27;106951;1284;108734;-92
2023/10/01 02:35:38;;;;;;;18.80;5.70;;;;;;;12.56;75.85;99866.85;104240;1275;94310;-93
2023/10/01 02:39:11;;;;;;;18.30;6.00;;;;;;;12.51;75.85;99869.86;107154;1279;94522;-92
2023/10/01 02:42:26;;;;;;;19.60;6.10;;;;;;;12.47;75.83;99872.79;106978;1279;109985;-94
2023/10/01 02:45:38;;;;;;;18.90;5.90;;;;;;;12.45;75.79;99872.38;106997;1279;96049;-92
2023/10/01 02:49:05;;;;;;;17.10;6.20;;;;;;;12.42;75.79;99874.91;106870;1280;107828;-92
2023/10/01 02:55:36;;;;;;;16.10;5.80;;;;;;;12.41;75.77;99867.84;107284;1276;94393;-93
2023/10/01 02:58:45;;;;;;;18.60;6.20;;;;;;;12.41;75.71;99862.00;107188;1278;111124;-92
2023/10/01 03:04:46;;;;;;;19.90;5.90;;;;;;;12.36;75.87;99860.86;107345;1276;106285;-92
2023/10/01 03:08:03;;;;;;;;;;;;;;;;;;;;;
2023/10/01 03:11:11;;;;;;;18.90;7.00;;;;;;;12.38;75.82;99854.20;106823;1281;94393;-93
2023/10/01 03:14:20;;;;;;;18.50;6.30;;;;;;;12.38;75.80;99854.34;107210;1277;110467;-92
2023/10/01 03:17:38;;;;;;;15.70;5.80;;;;;;;12.35;75.64;99850.83;107252;1276;94368;-92
2023/10/01 03:23:58;;;;;;;18.60;6.40;;;;;;;12.27;75.59;99844.80;107302;1273;95716;-92
2023/10/01 03:30:21;;;;;;;19.60;6.30;;;;;;;12.26;75.79;99849.50;107409;1276;108428;-93
2023/10/01 03:33:20;;;;;;;17.10;5.60;;;;;;;12.25;75.70;99848.86;106951;1280;95747;-92
2023/10/01 03:39:43;;;;;;;16.80;6.20;;;;;;;12.18;75.69;99845.16;107364;1273;95708;-91
2023/10/01 03:42:49;;;;;;;21.00;7.10;;;;;;;12.16;75.68;99845.55;107175;1282;94279;-92
2023/10/01 03:52:29;;;;;;;20.40;6.70;;;;;;;12.08;75.65;99856.20;107053;1279;107693;-91
2023/10/01 03:55:46;;;;;;;19.60;6.90;;;;;;;12.07;75.63;99854.99;107349;1275;94551;-92
2023/10/01 03:59:01;;;;;;;21.10;6.50;;;;;;;12.05;75.64;99851.70;106995;1279;95247;-89
2023/10/01 04:08:44;;;;;;;19.70;6.60;;;;;;;12.02;75.63;99856.23;107369;1276;109760;-92
2023/10/01 04:12:29;;;;;;;;;;;;;;;;;;;;;
2023/10/01 04:15:40;;;;;;;17.00;6.10;;;;;;;12.03;75.60;99854.33;107071;1279;94697;-89
2023/10/01 04:21:37;;;;;;;20.80;6.50;;;;;;;12.03;75.67;99854.16;107454;1275;95464;-92
2023/10/01 04:24:42;;;;;;;20.90;7.40;;;;;;;12.02;75.50;99857.64;106931;1278;108427;-92
2023/10/01 04:33:39;;;;;;;19.50;6.80;;;;;;;11.98;75.60;99869.61;107118;1279;110279;-89
2023/10/01 04:37:36;;;;;;;19.30;6.50;;;;;;;11.97;75.63;99871.63;106995;1279;95748;-91
2023/10/01 04:41:11;;;;;;;17.60;6.30;;;;;;;11.99;75.67;99869.56;107064;1279;108001;-90
2023/10/01 05:00:10;;;;;;;20.40;6.70;;;;;;;12.01;75.68;99862.49;106774;1276;94278;-91
2023/10/01 05:45:04;;;;;;;;;;;;;;;;;;;;;
2023/10/01 05:48:33;;;;;;;;;;;;;;;;;;;;;
2023/10/01 05:56:57;;;;;;;;;;;;;;;;;;;;;
2023/10/01 10:17:45;;;;;;;;;;;;;;;17.06;72.89;99895.15;102088;1284;5004472;-94
2023/10/01 10:21:36;;;;;;;;;;;;;;;;;;;;;
2023/10/01 10:26:11;;;;;;;;;;;;;;;;;;;;;
2023/10/01 10:34:54;;;;;;;19.30;5.20;;;;;;;16.95;72.26;99888.17;104854;1269;94530;-80
